DLH2EL EDDM-EDDF
Flight info
| Callsign | DLH2EL |
|---|---|
| Flight time | 0h 34m |
| Altitude | 24000 |
| Route | GIVMI1N/26R GIVMI Y101 ERNAS T161 DEBHI DEBHI1B |
| Aircraft | A320/M-SDE3FGHIRWY/LB1 |
Departure
| Time | 2026-05-04 18:50 |
|---|---|
| Airport | Munich Airport (EDDM) |
Arrival
| Time | 2026-05-04 19:24 |
|---|---|
| Airport | Frankfurt Main Airport (EDDF) |
| Time | Latitude | Longitude | Altitude | Speed | Heading |
|---|---|---|---|---|---|
| 2026-05-04 18:19 | 48.35549 | 11.79996 | 1468 ft | 0 kts | 263° |
| 2026-05-04 18:22 | 48.35549 | 11.80000 | 1486 ft | 0 kts | 263° |
| 2026-05-04 18:40 | 48.35550 | 11.80006 | 1485 ft | 3 kts | 264° |
| 2026-05-04 18:40 | 48.35551 | 11.80040 | 1483 ft | 3 kts | 273° |
| 2026-05-04 18:41 | 48.35548 | 11.80071 | 1476 ft | 3 kts | 301° |
| 2026-05-04 18:41 | 48.35535 | 11.80089 | 1482 ft | 1 kts | 353° |
| 2026-05-04 18:43 | 48.35536 | 11.80089 | 1482 ft | 1 kts | 353° |
| 2026-05-04 18:44 | 48.35578 | 11.80081 | 1482 ft | 10 kts | 353° |
| 2026-05-04 18:44 | 48.35623 | 11.80074 | 1477 ft | 10 kts | 353° |
| 2026-05-04 18:44 | 48.35769 | 11.80067 | 1479 ft | 23 kts | 359° |
| 2026-05-04 18:44 | 48.35847 | 11.79968 | 1473 ft | 16 kts | 260° |
| 2026-05-04 18:45 | 48.35836 | 11.79800 | 1476 ft | 17 kts | 265° |
| 2026-05-04 18:45 | 48.35824 | 11.79619 | 1485 ft | 18 kts | 262° |
| 2026-05-04 18:45 | 48.35865 | 11.79516 | 1481 ft | 12 kts | 353° |
| 2026-05-04 18:45 | 48.35951 | 11.79504 | 1485 ft | 13 kts | 354° |
| 2026-05-04 18:46 | 48.36045 | 11.79488 | 1485 ft | 14 kts | 353° |
| 2026-05-04 18:46 | 48.36149 | 11.79470 | 1485 ft | 16 kts | 353° |
| 2026-05-04 18:46 | 48.36225 | 11.79556 | 1478 ft | 15 kts | 79° |
| 2026-05-04 18:46 | 48.36232 | 11.79721 | 1485 ft | 17 kts | 83° |
| 2026-05-04 18:47 | 48.36251 | 11.79947 | 1479 ft | 29 kts | 83° |
| 2026-05-04 18:47 | 48.36277 | 11.80251 | 1476 ft | 30 kts | 82° |
| 2026-05-04 18:47 | 48.36302 | 11.80561 | 1485 ft | 30 kts | 84° |
| 2026-05-04 18:47 | 48.36321 | 11.80876 | 1485 ft | 30 kts | 83° |
| 2026-05-04 18:48 | 48.36347 | 11.81193 | 1485 ft | 31 kts | 83° |
| 2026-05-04 18:48 | 48.36372 | 11.81514 | 1482 ft | 31 kts | 84° |
| 2026-05-04 18:48 | 48.36394 | 11.81827 | 1481 ft | 20 kts | 84° |
| 2026-05-04 18:48 | 48.36417 | 11.81989 | 1479 ft | 14 kts | 28° |
| 2026-05-04 18:49 | 48.36554 | 11.81984 | 1485 ft | 22 kts | 353° |
| 2026-05-04 18:49 | 48.36672 | 11.81928 | 1478 ft | 15 kts | 289° |
| 2026-05-04 18:49 | 48.36660 | 11.81753 | 1479 ft | 25 kts | 263° |
| 2026-05-04 18:49 | 48.36616 | 11.81163 | 1485 ft | 91 kts | 263° |
| 2026-05-04 18:50 | 48.36519 | 11.79914 | 1480 ft | 147 kts | 263° |
| 2026-05-04 18:50 | 48.36379 | 11.78169 | 1618 ft | 180 kts | 264° |
| 2026-05-04 18:50 | 48.36236 | 11.76337 | 2399 ft | 176 kts | 264° |
| 2026-05-04 18:50 | 48.36098 | 11.74493 | 3039 ft | 182 kts | 264° |
| 2026-05-04 18:51 | 48.35951 | 11.72493 | 3356 ft | 203 kts | 264° |
| 2026-05-04 18:51 | 48.35791 | 11.70304 | 3718 ft | 218 kts | 263° |
| 2026-05-04 18:51 | 48.35673 | 11.67948 | 4087 ft | 234 kts | 274° |
| 2026-05-04 18:51 | 48.36249 | 11.65557 | 4406 ft | 258 kts | 300° |
| 2026-05-04 18:52 | 48.37247 | 11.63192 | 4970 ft | 274 kts | 304° |
| 2026-05-04 18:52 | 48.38341 | 11.60820 | 5814 ft | 278 kts | 304° |
| 2026-05-04 18:52 | 48.39449 | 11.58405 | 6580 ft | 283 kts | 303° |
| 2026-05-04 18:52 | 48.40544 | 11.55936 | 6897 ft | 284 kts | 301° |
| 2026-05-04 18:53 | 48.41841 | 11.53690 | 7713 ft | 288 kts | 320° |
| 2026-05-04 18:53 | 48.43630 | 11.52253 | 8598 ft | 294 kts | 335° |
| 2026-05-04 18:53 | 48.45533 | 11.51102 | 9453 ft | 297 kts | 335° |
| 2026-05-04 18:53 | 48.47473 | 11.49953 | 10207 ft | 305 kts | 335° |
| 2026-05-04 18:54 | 48.49592 | 11.48701 | 10479 ft | 329 kts | 335° |
| 2026-05-04 18:54 | 48.51723 | 11.47440 | 10692 ft | 352 kts | 335° |
| 2026-05-04 18:54 | 48.54063 | 11.46052 | 11073 ft | 367 kts | 335° |
| 2026-05-04 18:54 | 48.56456 | 11.44632 | 11715 ft | 372 kts | 336° |
| 2026-05-04 18:55 | 48.58881 | 11.43192 | 12414 ft | 377 kts | 336° |
| 2026-05-04 18:55 | 48.63757 | 11.40286 | 13786 ft | 385 kts | 336° |
| 2026-05-04 18:55 | 48.66284 | 11.38776 | 14475 ft | 386 kts | 336° |
| 2026-05-04 18:56 | 48.68785 | 11.37282 | 15190 ft | 387 kts | 335° |
| 2026-05-04 18:56 | 48.71207 | 11.35400 | 15837 ft | 387 kts | 324° |
| 2026-05-04 18:56 | 48.73448 | 11.33127 | 16480 ft | 388 kts | 323° |
| 2026-05-04 18:56 | 48.75697 | 11.30836 | 17112 ft | 391 kts | 323° |
| 2026-05-04 18:57 | 48.77952 | 11.28549 | 17734 ft | 393 kts | 323° |
| 2026-05-04 18:57 | 48.80242 | 11.26226 | 18331 ft | 396 kts | 323° |
| 2026-05-04 18:57 | 48.82539 | 11.23897 | 18843 ft | 398 kts | 323° |
| 2026-05-04 18:57 | 48.84802 | 11.21460 | 19331 ft | 400 kts | 317° |
| 2026-05-04 18:58 | 48.86870 | 11.18627 | 19828 ft | 402 kts | 315° |
| 2026-05-04 18:58 | 48.89124 | 11.15477 | 20364 ft | 405 kts | 315° |
| 2026-05-04 18:58 | 48.91036 | 11.12805 | 20804 ft | 408 kts | 315° |
| 2026-05-04 18:58 | 48.93139 | 11.09875 | 21275 ft | 411 kts | 315° |
| 2026-05-04 18:59 | 48.95247 | 11.06933 | 21749 ft | 414 kts | 315° |
| 2026-05-04 18:59 | 48.97375 | 11.03963 | 22209 ft | 417 kts | 315° |
| 2026-05-04 18:59 | 48.99517 | 11.00968 | 22704 ft | 419 kts | 314° |
| 2026-05-04 18:59 | 49.01651 | 10.97976 | 23424 ft | 415 kts | 314° |
| 2026-05-04 19:00 | 49.03773 | 10.94991 | 23826 ft | 415 kts | 314° |
| 2026-05-04 19:00 | 49.05896 | 10.92000 | 23949 ft | 414 kts | 314° |
| 2026-05-04 19:00 | 49.08005 | 10.89028 | 23981 ft | 414 kts | 314° |
| 2026-05-04 19:00 | 49.10133 | 10.86022 | 23985 ft | 424 kts | 314° |
| 2026-05-04 19:01 | 49.12340 | 10.82898 | 23987 ft | 438 kts | 314° |
| 2026-05-04 19:01 | 49.13974 | 10.80584 | 23956 ft | 446 kts | 314° |
| 2026-05-04 19:01 | 49.16238 | 10.77382 | 23870 ft | 436 kts | 314° |
| 2026-05-04 19:01 | 49.18400 | 10.74333 | 23687 ft | 409 kts | 314° |
| 2026-05-04 19:02 | 49.20441 | 10.71426 | 23016 ft | 395 kts | 313° |
| 2026-05-04 19:02 | 49.22375 | 10.68505 | 22233 ft | 388 kts | 311° |
| 2026-05-04 19:02 | 49.24231 | 10.65564 | 21977 ft | 382 kts | 310° |
| 2026-05-04 19:02 | 49.26053 | 10.62621 | 21974 ft | 380 kts | 310° |
| 2026-05-04 19:03 | 49.27872 | 10.59677 | 21982 ft | 381 kts | 310° |
| 2026-05-04 19:03 | 49.29700 | 10.56740 | 21981 ft | 381 kts | 310° |
| 2026-05-04 19:03 | 49.31532 | 10.53817 | 21978 ft | 380 kts | 310° |
| 2026-05-04 19:03 | 49.33355 | 10.50921 | 21979 ft | 376 kts | 310° |
| 2026-05-04 19:04 | 49.35166 | 10.48045 | 21982 ft | 374 kts | 309° |
| 2026-05-04 19:04 | 49.36822 | 10.44980 | 21962 ft | 371 kts | 302° |
| 2026-05-04 19:04 | 49.38302 | 10.41754 | 21723 ft | 370 kts | 301° |
| 2026-05-04 19:04 | 49.39781 | 10.38526 | 21463 ft | 369 kts | 301° |
| 2026-05-04 19:05 | 49.41257 | 10.35307 | 21206 ft | 367 kts | 302° |
| 2026-05-04 19:05 | 49.42722 | 10.32103 | 20954 ft | 366 kts | 302° |
| 2026-05-04 19:05 | 49.44178 | 10.28911 | 20703 ft | 365 kts | 301° |
| 2026-05-04 19:05 | 49.45632 | 10.25717 | 20453 ft | 363 kts | 302° |
| 2026-05-04 19:06 | 49.47075 | 10.22540 | 20209 ft | 362 kts | 302° |
| 2026-05-04 19:06 | 49.48538 | 10.19318 | 19962 ft | 361 kts | 302° |
| 2026-05-04 19:06 | 49.49945 | 10.16209 | 19723 ft | 359 kts | 302° |
| 2026-05-04 19:06 | 49.51368 | 10.13061 | 19493 ft | 358 kts | 302° |
| 2026-05-04 19:07 | 49.52791 | 10.09913 | 19254 ft | 357 kts | 302° |
| 2026-05-04 19:07 | 49.54205 | 10.06781 | 19019 ft | 356 kts | 302° |
| 2026-05-04 19:07 | 49.55616 | 10.03662 | 18791 ft | 355 kts | 303° |
| 2026-05-04 19:07 | 49.57218 | 10.00748 | 18476 ft | 356 kts | 309° |
| 2026-05-04 19:08 | 49.58872 | 9.97924 | 18083 ft | 354 kts | 309° |
| 2026-05-04 19:08 | 49.60531 | 9.95141 | 17657 ft | 352 kts | 310° |
| 2026-05-04 19:08 | 49.62189 | 9.92377 | 17236 ft | 350 kts | 310° |
| 2026-05-04 19:08 | 49.63833 | 9.89629 | 16820 ft | 348 kts | 310° |
| 2026-05-04 19:09 | 49.65467 | 9.86886 | 16412 ft | 346 kts | 310° |
| 2026-05-04 19:09 | 49.67085 | 9.84155 | 16009 ft | 344 kts | 310° |
| 2026-05-04 19:09 | 49.68691 | 9.81436 | 15606 ft | 342 kts | 309° |
| 2026-05-04 19:09 | 49.70287 | 9.78729 | 15207 ft | 340 kts | 310° |
| 2026-05-04 19:10 | 49.71876 | 9.76030 | 14816 ft | 338 kts | 309° |
| 2026-05-04 19:10 | 49.73451 | 9.73344 | 14437 ft | 336 kts | 309° |
| 2026-05-04 19:10 | 49.75018 | 9.70667 | 14058 ft | 335 kts | 309° |
| 2026-05-04 19:10 | 49.76576 | 9.68004 | 13660 ft | 333 kts | 309° |
| 2026-05-04 19:11 | 49.78129 | 9.65350 | 13238 ft | 332 kts | 309° |
| 2026-05-04 19:11 | 49.79675 | 9.62710 | 12811 ft | 330 kts | 309° |
| 2026-05-04 19:11 | 49.81210 | 9.60087 | 12403 ft | 328 kts | 309° |
| 2026-05-04 19:11 | 49.82740 | 9.57470 | 11989 ft | 327 kts | 309° |
| 2026-05-04 19:12 | 49.83771 | 9.55702 | 11721 ft | 325 kts | 309° |
| 2026-05-04 19:12 | 49.86766 | 9.50567 | 10932 ft | 322 kts | 309° |
| 2026-05-04 19:12 | 49.88265 | 9.47996 | 10543 ft | 320 kts | 309° |
| 2026-05-04 19:13 | 49.89755 | 9.45431 | 10156 ft | 318 kts | 309° |
| 2026-05-04 19:13 | 49.91230 | 9.42889 | 9843 ft | 314 kts | 309° |
| 2026-05-04 19:13 | 49.92690 | 9.40373 | 9468 ft | 311 kts | 309° |
| 2026-05-04 19:13 | 49.94139 | 9.37876 | 9042 ft | 310 kts | 309° |
| 2026-05-04 19:14 | 49.95564 | 9.35416 | 8594 ft | 309 kts | 309° |
| 2026-05-04 19:14 | 49.96996 | 9.32941 | 8218 ft | 306 kts | 309° |
| 2026-05-04 19:14 | 49.98423 | 9.30476 | 7842 ft | 303 kts | 309° |
| 2026-05-04 19:14 | 49.99977 | 9.27787 | 7423 ft | 300 kts | 309° |
| 2026-05-04 19:15 | 50.01218 | 9.25637 | 7099 ft | 297 kts | 309° |
| 2026-05-04 19:15 | 50.02579 | 9.23274 | 6732 ft | 294 kts | 309° |
| 2026-05-04 19:15 | 50.03959 | 9.20878 | 6366 ft | 292 kts | 310° |
| 2026-05-04 19:15 | 50.05289 | 9.18567 | 5978 ft | 286 kts | 310° |
| 2026-05-04 19:16 | 50.06596 | 9.16296 | 5600 ft | 278 kts | 310° |
| 2026-05-04 19:16 | 50.07906 | 9.14012 | 5219 ft | 275 kts | 310° |
| 2026-05-04 19:16 | 50.09152 | 9.11834 | 4857 ft | 273 kts | 311° |
| 2026-05-04 19:16 | 50.10382 | 9.09682 | 4558 ft | 263 kts | 311° |
| 2026-05-04 19:17 | 50.11577 | 9.07571 | 4298 ft | 259 kts | 308° |
| 2026-05-04 19:17 | 50.12327 | 9.05321 | 4084 ft | 255 kts | 283° |
| 2026-05-04 19:17 | 50.12571 | 9.02626 | 4010 ft | 251 kts | 275° |
| 2026-05-04 19:17 | 50.12713 | 8.99922 | 4009 ft | 244 kts | 274° |
| 2026-05-04 19:18 | 50.12838 | 8.97332 | 4011 ft | 236 kts | 272° |
| 2026-05-04 19:18 | 50.12601 | 8.94854 | 4008 ft | 232 kts | 250° |
| 2026-05-04 19:18 | 50.12055 | 8.92609 | 4006 ft | 217 kts | 248° |
| 2026-05-04 19:18 | 50.11531 | 8.90470 | 4009 ft | 204 kts | 249° |
| 2026-05-04 19:19 | 50.11055 | 8.88464 | 4017 ft | 190 kts | 249° |
| 2026-05-04 19:19 | 50.10609 | 8.86572 | 3992 ft | 180 kts | 249° |
| 2026-05-04 19:19 | 50.10189 | 8.84784 | 3831 ft | 168 kts | 249° |
| 2026-05-04 19:19 | 50.09799 | 8.83128 | 3634 ft | 159 kts | 249° |
| 2026-05-04 19:20 | 50.09423 | 8.81532 | 3452 ft | 152 kts | 250° |
| 2026-05-04 19:20 | 50.09061 | 8.79996 | 3235 ft | 149 kts | 250° |
| 2026-05-04 19:20 | 50.08709 | 8.78505 | 3054 ft | 147 kts | 250° |
| 2026-05-04 19:20 | 50.08356 | 8.77009 | 2853 ft | 146 kts | 251° |
| 2026-05-04 19:21 | 50.08002 | 8.75514 | 2656 ft | 146 kts | 251° |
| 2026-05-04 19:21 | 50.07664 | 8.74049 | 2474 ft | 145 kts | 255° |
| 2026-05-04 19:21 | 50.07493 | 8.72505 | 2325 ft | 144 kts | 266° |
| 2026-05-04 19:21 | 50.07346 | 8.70948 | 2124 ft | 145 kts | 259° |
| 2026-05-04 19:22 | 50.07051 | 8.69441 | 1919 ft | 145 kts | 251° |
| 2026-05-04 19:22 | 50.06718 | 8.67981 | 1729 ft | 144 kts | 252° |
| 2026-05-04 19:22 | 50.06370 | 8.66515 | 1532 ft | 144 kts | 251° |
| 2026-05-04 19:22 | 50.06021 | 8.65038 | 1318 ft | 144 kts | 251° |
| 2026-05-04 19:23 | 50.05675 | 8.63585 | 1089 ft | 142 kts | 251° |
| 2026-05-04 19:23 | 50.05335 | 8.62171 | 895 ft | 140 kts | 251° |
| 2026-05-04 19:23 | 50.04991 | 8.60752 | 716 ft | 139 kts | 252° |
| 2026-05-04 19:23 | 50.04665 | 8.59360 | 508 ft | 138 kts | 251° |
| 2026-05-04 19:24 | 50.04336 | 8.57971 | 375 ft | 129 kts | 252° |
| 2026-05-04 19:24 | 50.04063 | 8.56814 | 360 ft | 94 kts | 249° |
| 2026-05-04 19:24 | 50.03906 | 8.56148 | 358 ft | 39 kts | 252° |
| 2026-05-04 19:24 | 50.03892 | 8.55795 | 354 ft | 29 kts | 279° |
| 2026-05-04 19:25 | 50.03957 | 8.55645 | 355 ft | 17 kts | 9° |
| 2026-05-04 19:25 | 50.03997 | 8.55734 | 358 ft | 12 kts | 71° |
| 2026-05-04 19:25 | 50.04025 | 8.55850 | 359 ft | 10 kts | 69° |
| 2026-05-04 19:25 | 50.04033 | 8.55886 | 353 ft | 2 kts | 69° |
| 2026-05-04 19:26 | 50.04035 | 8.55893 | 352 ft | 0 kts | 69° |
| 2026-05-04 19:27 | 50.04041 | 8.55918 | 354 ft | 2 kts | 69° |
| 2026-05-04 19:27 | 50.04070 | 8.55967 | 356 ft | 11 kts | 25° |
| 2026-05-04 19:28 | 50.04140 | 8.55945 | 359 ft | 12 kts | 340° |
| 2026-05-04 19:28 | 50.04223 | 8.55926 | 353 ft | 12 kts | 23° |
| 2026-05-04 19:28 | 50.04290 | 8.55957 | 355 ft | 9 kts | 353° |
| 2026-05-04 19:28 | 50.04344 | 8.55931 | 362 ft | 8 kts | 341° |
| 2026-05-04 19:29 | 50.04390 | 8.55909 | 358 ft | 9 kts | 348° |
| 2026-05-04 19:29 | 50.04523 | 8.55955 | 360 ft | 24 kts | 18° |
| 2026-05-04 19:29 | 50.04628 | 8.55953 | 359 ft | 5 kts | 340° |
| 2026-05-04 19:29 | 50.04648 | 8.55941 | 362 ft | 0 kts | 340° |